sensor_id;sensor_type;location;lat;lon;timestamp;P1;durP1;ratioP1;P2;durP2;ratioP2
22359;SDS011;11347;52.030;4.690;2022-11-20T00:00:57;5.60;;;3.40;;
22359;SDS011;11347;52.030;4.690;2022-11-20T00:03:22;6.27;;;3.60;;
22359;SDS011;11347;52.030;4.690;2022-11-20T00:05:48;5.20;;;3.47;;
22359;SDS011;11347;52.030;4.690;2022-11-20T00:08:14;5.63;;;3.30;;
22359;SDS011;11347;52.030;4.690;2022-11-20T00:10:40;7.47;;;3.50;;
22359;SDS011;11347;52.030;4.690;2022-11-20T00:13:06;5.83;;;3.40;;
22359;SDS011;11347;52.030;4.690;2022-11-20T00:15:32;5.50;;;3.63;;
22359;SDS011;11347;52.030;4.690;2022-11-20T00:17:58;5.00;;;3.40;;
22359;SDS011;11347;52.030;4.690;2022-11-20T00:20:24;5.80;;;3.43;;
22359;SDS011;11347;52.030;4.690;2022-11-20T00:22:50;5.07;;;3.30;;
22359;SDS011;11347;52.030;4.690;2022-11-20T00:25:15;5.63;;;3.37;;
22359;SDS011;11347;52.030;4.690;2022-11-20T00:27:41;5.87;;;3.33;;
22359;SDS011;11347;52.030;4.690;2022-11-20T00:30:07;5.10;;;3.47;;
22359;SDS011;11347;52.030;4.690;2022-11-20T00:32:33;6.03;;;3.17;;
22359;SDS011;11347;52.030;4.690;2022-11-20T00:34:59;4.77;;;3.20;;
22359;SDS011;11347;52.030;4.690;2022-11-20T00:37:24;6.60;;;3.70;;
22359;SDS011;11347;52.030;4.690;2022-11-20T00:39:50;4.77;;;3.17;;
22359;SDS011;11347;52.030;4.690;2022-11-20T00:42:15;5.43;;;3.30;;
22359;SDS011;11347;52.030;4.690;2022-11-20T00:44:41;6.33;;;3.77;;
22359;SDS011;11347;52.030;4.690;2022-11-20T00:47:07;5.07;;;3.10;;
22359;SDS011;11347;52.030;4.690;2022-11-20T00:49:32;5.90;;;3.57;;
22359;SDS011;11347;52.030;4.690;2022-11-20T00:51:58;5.83;;;3.70;;
22359;SDS011;11347;52.030;4.690;2022-11-20T00:54:23;7.40;;;3.90;;
22359;SDS011;11347;52.030;4.690;2022-11-20T00:56:49;4.97;;;3.20;;
22359;SDS011;11347;52.030;4.690;2022-11-20T00:59:14;5.23;;;3.30;;
22359;SDS011;11347;52.030;4.690;2022-11-20T01:01:40;6.47;;;3.90;;
22359;SDS011;11347;52.030;4.690;2022-11-20T01:04:05;7.10;;;3.60;;
22359;SDS011;11347;52.030;4.690;2022-11-20T01:09:02;5.13;;;3.53;;
22359;SDS011;11347;52.030;4.690;2022-11-20T01:11:34;6.57;;;3.80;;
22359;SDS011;11347;52.030;4.690;2022-11-20T01:14:02;6.37;;;3.50;;
22359;SDS011;11347;52.030;4.690;2022-11-20T01:16:34;6.13;;;3.90;;
22359;SDS011;11347;52.030;4.690;2022-11-20T01:19:02;6.07;;;3.77;;
22359;SDS011;11347;52.030;4.690;2022-11-20T01:21:31;6.90;;;3.87;;
22359;SDS011;11347;52.030;4.690;2022-11-20T01:23:59;6.67;;;3.63;;
22359;SDS011;11347;52.030;4.690;2022-11-20T01:26:26;5.83;;;3.60;;
22359;SDS011;11347;52.030;4.690;2022-11-20T01:28:55;6.37;;;3.97;;
22359;SDS011;11347;52.030;4.690;2022-11-20T01:31:24;9.27;;;4.27;;
22359;SDS011;11347;52.030;4.690;2022-11-20T01:33:53;7.23;;;4.00;;
22359;SDS011;11347;52.030;4.690;2022-11-20T01:36:21;5.47;;;3.50;;
22359;SDS011;11347;52.030;4.690;2022-11-20T01:38:48;7.90;;;3.90;;
22359;SDS011;11347;52.030;4.690;2022-11-20T01:41:17;6.57;;;3.77;;
22359;SDS011;11347;52.030;4.690;2022-11-20T01:44:02;6.53;;;3.47;;
22359;SDS011;11347;52.030;4.690;2022-11-20T01:46:28;8.77;;;3.30;;
22359;SDS011;11347;52.030;4.690;2022-11-20T01:51:42;5.30;;;3.17;;
22359;SDS011;11347;52.030;4.690;2022-11-20T01:54:17;6.33;;;3.37;;
22359;SDS011;11347;52.030;4.690;2022-11-20T01:56:48;5.30;;;3.03;;
22359;SDS011;11347;52.030;4.690;2022-11-20T01:59:18;6.73;;;3.60;;
22359;SDS011;11347;52.030;4.690;2022-11-20T02:01:44;5.97;;;3.30;;
22359;SDS011;11347;52.030;4.690;2022-11-20T02:04:10;6.97;;;3.90;;
22359;SDS011;11347;52.030;4.690;2022-11-20T02:06:42;5.57;;;3.27;;
22359;SDS011;11347;52.030;4.690;2022-11-20T02:09:21;6.97;;;2.90;;
22359;SDS011;11347;52.030;4.690;2022-11-20T02:11:47;5.50;;;2.90;;
22359;SDS011;11347;52.030;4.690;2022-11-20T02:14:12;4.87;;;3.03;;
22359;SDS011;11347;52.030;4.690;2022-11-20T02:16:40;5.10;;;3.40;;
22359;SDS011;11347;52.030;4.690;2022-11-20T02:19:15;5.70;;;3.37;;
22359;SDS011;11347;52.030;4.690;2022-11-20T02:21:56;5.83;;;3.30;;
22359;SDS011;11347;52.030;4.690;2022-11-20T02:24:31;5.17;;;2.97;;
22359;SDS011;11347;52.030;4.690;2022-11-20T02:26:59;7.97;;;3.40;;
22359;SDS011;11347;52.030;4.690;2022-11-20T02:29:50;4.73;;;3.10;;
22359;SDS011;11347;52.030;4.690;2022-11-20T02:32:27;4.77;;;3.20;;
22359;SDS011;11347;52.030;4.690;2022-11-20T02:34:58;5.73;;;3.40;;
22359;SDS011;11347;52.030;4.690;2022-11-20T02:37:32;6.17;;;3.33;;
22359;SDS011;11347;52.030;4.690;2022-11-20T02:40:01;5.80;;;3.60;;
22359;SDS011;11347;52.030;4.690;2022-11-20T02:42:26;6.23;;;3.77;;
22359;SDS011;11347;52.030;4.690;2022-11-20T02:44:52;5.10;;;3.10;;
22359;SDS011;11347;52.030;4.690;2022-11-20T02:47:17;7.83;;;3.60;;
22359;SDS011;11347;52.030;4.690;2022-11-20T02:49:43;6.13;;;3.50;;
22359;SDS011;11347;52.030;4.690;2022-11-20T02:52:09;5.70;;;3.67;;
22359;SDS011;11347;52.030;4.690;2022-11-20T02:54:34;4.47;;;3.30;;
22359;SDS011;11347;52.030;4.690;2022-11-20T02:57:00;9.40;;;3.77;;
22359;SDS011;11347;52.030;4.690;2022-11-20T02:59:25;5.80;;;2.90;;
22359;SDS011;11347;52.030;4.690;2022-11-20T03:01:51;5.90;;;3.30;;
22359;SDS011;11347;52.030;4.690;2022-11-20T03:04:16;7.20;;;3.40;;
22359;SDS011;11347;52.030;4.690;2022-11-20T03:06:42;6.20;;;3.03;;
22359;SDS011;11347;52.030;4.690;2022-11-20T03:09:07;5.53;;;3.27;;
22359;SDS011;11347;52.030;4.690;2022-11-20T03:11:33;6.07;;;3.50;;
22359;SDS011;11347;52.030;4.690;2022-11-20T03:14:01;6.60;;;3.50;;
22359;SDS011;11347;52.030;4.690;2022-11-20T03:16:28;5.00;;;3.50;;
22359;SDS011;11347;52.030;4.690;2022-11-20T03:18:55;5.30;;;3.00;;
22359;SDS011;11347;52.030;4.690;2022-11-20T03:21:21;6.67;;;3.43;;
22359;SDS011;11347;52.030;4.690;2022-11-20T03:23:46;6.10;;;3.60;;
22359;SDS011;11347;52.030;4.690;2022-11-20T03:26:22;7.60;;;3.87;;
22359;SDS011;11347;52.030;4.690;2022-11-20T03:28:51;5.87;;;3.23;;
22359;SDS011;11347;52.030;4.690;2022-11-20T03:31:19;5.20;;;3.17;;
22359;SDS011;11347;52.030;4.690;2022-11-20T03:33:46;7.00;;;3.50;;
22359;SDS011;11347;52.030;4.690;2022-11-20T03:36:12;6.50;;;3.53;;
22359;SDS011;11347;52.030;4.690;2022-11-20T03:38:39;6.70;;;3.40;;
22359;SDS011;11347;52.030;4.690;2022-11-20T03:41:09;5.93;;;3.33;;
22359;SDS011;11347;52.030;4.690;2022-11-20T03:43:37;4.47;;;3.10;;
22359;SDS011;11347;52.030;4.690;2022-11-20T03:46:03;5.47;;;3.60;;
22359;SDS011;11347;52.030;4.690;2022-11-20T03:48:29;5.50;;;3.70;;
22359;SDS011;11347;52.030;4.690;2022-11-20T03:51:11;5.77;;;3.60;;
22359;SDS011;11347;52.030;4.690;2022-11-20T03:53:40;7.00;;;3.73;;
22359;SDS011;11347;52.030;4.690;2022-11-20T03:56:07;7.50;;;3.77;;
22359;SDS011;11347;52.030;4.690;2022-11-20T03:58:34;5.87;;;3.37;;
22359;SDS011;11347;52.030;4.690;2022-11-20T04:01:05;5.60;;;3.50;;
22359;SDS011;11347;52.030;4.690;2022-11-20T04:03:32;5.63;;;3.50;;
22359;SDS011;11347;52.030;4.690;2022-11-20T04:06:33;6.00;;;3.57;;
22359;SDS011;11347;52.030;4.690;2022-11-20T04:08:54;6.90;;;3.47;;
22359;SDS011;11347;52.030;4.690;2022-11-20T04:11:21;7.53;;;3.70;;
22359;SDS011;11347;52.030;4.690;2022-11-20T04:13:53;7.67;;;3.93;;
22359;SDS011;11347;52.030;4.690;2022-11-20T04:16:21;6.20;;;3.73;;
22359;SDS011;11347;52.030;4.690;2022-11-20T04:18:51;6.17;;;3.40;;
22359;SDS011;11347;52.030;4.690;2022-11-20T04:21:21;5.70;;;3.47;;
22359;SDS011;11347;52.030;4.690;2022-11-20T04:23:46;5.63;;;3.77;;
22359;SDS011;11347;52.030;4.690;2022-11-20T04:26:12;6.07;;;3.50;;
22359;SDS011;11347;52.030;4.690;2022-11-20T04:28:37;6.27;;;3.60;;
22359;SDS011;11347;52.030;4.690;2022-11-20T04:31:05;6.07;;;4.03;;
22359;SDS011;11347;52.030;4.690;2022-11-20T04:33:32;9.80;;;4.00;;
22359;SDS011;11347;52.030;4.690;2022-11-20T04:36:10;6.33;;;3.93;;
22359;SDS011;11347;52.030;4.690;2022-11-20T04:38:37;6.60;;;3.70;;
22359;SDS011;11347;52.030;4.690;2022-11-20T04:41:04;6.70;;;3.80;;
22359;SDS011;11347;52.030;4.690;2022-11-20T04:43:31;5.77;;;3.70;;
22359;SDS011;11347;52.030;4.690;2022-11-20T04:45:58;7.43;;;3.60;;
22359;SDS011;11347;52.030;4.690;2022-11-20T04:48:24;6.53;;;3.97;;
22359;SDS011;11347;52.030;4.690;2022-11-20T04:50:51;5.13;;;3.60;;
22359;SDS011;11347;52.030;4.690;2022-11-20T04:53:17;5.63;;;3.70;;
22359;SDS011;11347;52.030;4.690;2022-11-20T04:55:44;5.90;;;3.83;;
22359;SDS011;11347;52.030;4.690;2022-11-20T04:58:10;6.97;;;4.03;;
22359;SDS011;11347;52.030;4.690;2022-11-20T05:00:36;6.60;;;4.10;;
22359;SDS011;11347;52.030;4.690;2022-11-20T05:03:02;5.67;;;3.53;;
22359;SDS011;11347;52.030;4.690;2022-11-20T05:05:28;6.40;;;4.13;;
22359;SDS011;11347;52.030;4.690;2022-11-20T05:07:55;5.83;;;3.60;;
22359;SDS011;11347;52.030;4.690;2022-11-20T05:10:22;6.47;;;3.97;;
22359;SDS011;11347;52.030;4.690;2022-11-20T05:12:48;6.97;;;3.80;;
22359;SDS011;11347;52.030;4.690;2022-11-20T05:15:14;5.37;;;3.40;;
22359;SDS011;11347;52.030;4.690;2022-11-20T05:17:39;6.70;;;3.83;;
22359;SDS011;11347;52.030;4.690;2022-11-20T05:20:05;6.43;;;3.83;;
22359;SDS011;11347;52.030;4.690;2022-11-20T05:22:31;6.33;;;3.90;;
22359;SDS011;11347;52.030;4.690;2022-11-20T05:24:57;6.77;;;4.17;;
22359;SDS011;11347;52.030;4.690;2022-11-20T05:27:22;6.13;;;3.90;;
22359;SDS011;11347;52.030;4.690;2022-11-20T05:29:48;8.73;;;4.27;;
22359;SDS011;11347;52.030;4.690;2022-11-20T05:32:14;6.60;;;4.03;;
22359;SDS011;11347;52.030;4.690;2022-11-20T05:34:39;6.23;;;3.97;;
22359;SDS011;11347;52.030;4.690;2022-11-20T05:37:05;6.50;;;3.90;;
22359;SDS011;11347;52.030;4.690;2022-11-20T05:39:30;7.13;;;4.10;;
22359;SDS011;11347;52.030;4.690;2022-11-20T05:41:56;5.77;;;3.87;;
22359;SDS011;11347;52.030;4.690;2022-11-20T05:44:40;7.50;;;4.53;;
22359;SDS011;11347;52.030;4.690;2022-11-20T05:47:06;6.87;;;4.07;;
22359;SDS011;11347;52.030;4.690;2022-11-20T05:49:31;5.70;;;3.77;;
22359;SDS011;11347;52.030;4.690;2022-11-20T05:51:57;6.07;;;3.90;;
22359;SDS011;11347;52.030;4.690;2022-11-20T05:54:23;6.33;;;3.87;;
22359;SDS011;11347;52.030;4.690;2022-11-20T05:56:48;7.80;;;4.40;;
22359;SDS011;11347;52.030;4.690;2022-11-20T05:59:14;6.83;;;3.90;;
22359;SDS011;11347;52.030;4.690;2022-11-20T06:01:39;6.73;;;4.20;;
22359;SDS011;11347;52.030;4.690;2022-11-20T06:04:05;6.37;;;4.10;;
22359;SDS011;11347;52.030;4.690;2022-11-20T06:06:31;6.63;;;4.37;;
22359;SDS011;11347;52.030;4.690;2022-11-20T06:08:56;10.17;;;4.70;;
22359;SDS011;11347;52.030;4.690;2022-11-20T06:11:23;6.93;;;4.20;;
22359;SDS011;11347;52.030;4.690;2022-11-20T06:13:50;8.13;;;4.60;;
22359;SDS011;11347;52.030;4.690;2022-11-20T06:16:16;7.30;;;4.30;;
22359;SDS011;11347;52.030;4.690;2022-11-20T06:18:43;9.50;;;4.87;;
22359;SDS011;11347;52.030;4.690;2022-11-20T06:21:10;9.87;;;4.43;;
22359;SDS011;11347;52.030;4.690;2022-11-20T06:23:36;7.20;;;4.07;;
22359;SDS011;11347;52.030;4.690;2022-11-20T06:26:03;6.80;;;3.93;;
22359;SDS011;11347;52.030;4.690;2022-11-20T06:28:33;6.97;;;3.80;;
22359;SDS011;11347;52.030;4.690;2022-11-20T06:30:58;6.07;;;3.93;;
22359;SDS011;11347;52.030;4.690;2022-11-20T06:33:24;7.63;;;4.20;;
22359;SDS011;11347;52.030;4.690;2022-11-20T06:35:50;7.93;;;4.50;;
22359;SDS011;11347;52.030;4.690;2022-11-20T06:38:15;6.03;;;4.10;;
22359;SDS011;11347;52.030;4.690;2022-11-20T06:40:41;15.57;;;4.50;;
22359;SDS011;11347;52.030;4.690;2022-11-20T06:43:09;8.70;;;4.10;;
22359;SDS011;11347;52.030;4.690;2022-11-20T06:45:35;8.23;;;4.33;;
22359;SDS011;11347;52.030;4.690;2022-11-20T06:48:01;6.50;;;4.37;;
22359;SDS011;11347;52.030;4.690;2022-11-20T06:50:27;7.57;;;4.40;;
22359;SDS011;11347;52.030;4.690;2022-11-20T06:52:53;8.50;;;4.63;;
22359;SDS011;11347;52.030;4.690;2022-11-20T06:55:18;9.00;;;4.30;;
22359;SDS011;11347;52.030;4.690;2022-11-20T06:57:44;6.33;;;4.40;;
22359;SDS011;11347;52.030;4.690;2022-11-20T07:00:09;8.20;;;4.50;;
22359;SDS011;11347;52.030;4.690;2022-11-20T07:02:35;8.47;;;4.37;;
22359;SDS011;11347;52.030;4.690;2022-11-20T07:05:01;7.90;;;4.50;;
22359;SDS011;11347;52.030;4.690;2022-11-20T07:07:27;7.83;;;4.27;;
22359;SDS011;11347;52.030;4.690;2022-11-20T07:09:52;8.60;;;4.27;;
22359;SDS011;11347;52.030;4.690;2022-11-20T07:12:18;8.40;;;4.00;;
22359;SDS011;11347;52.030;4.690;2022-11-20T07:14:43;10.17;;;4.33;;
22359;SDS011;11347;52.030;4.690;2022-11-20T07:17:09;6.90;;;4.37;;
22359;SDS011;11347;52.030;4.690;2022-11-20T07:19:34;7.13;;;4.13;;
22359;SDS011;11347;52.030;4.690;2022-11-20T07:22:00;6.70;;;4.30;;
22359;SDS011;11347;52.030;4.690;2022-11-20T07:24:25;7.07;;;4.20;;
22359;SDS011;11347;52.030;4.690;2022-11-20T07:26:51;7.47;;;4.40;;
22359;SDS011;11347;52.030;4.690;2022-11-20T07:29:16;7.57;;;4.33;;
22359;SDS011;11347;52.030;4.690;2022-11-20T07:31:42;7.50;;;4.07;;
22359;SDS011;11347;52.030;4.690;2022-11-20T07:34:08;6.33;;;4.20;;
22359;SDS011;11347;52.030;4.690;2022-11-20T07:36:34;7.47;;;4.67;;
22359;SDS011;11347;52.030;4.690;2022-11-20T07:39:00;7.07;;;4.30;;
22359;SDS011;11347;52.030;4.690;2022-11-20T07:41:25;7.23;;;4.33;;
22359;SDS011;11347;52.030;4.690;2022-11-20T07:43:51;6.50;;;4.10;;
22359;SDS011;11347;52.030;4.690;2022-11-20T07:46:16;6.77;;;4.43;;
22359;SDS011;11347;52.030;4.690;2022-11-20T07:48:42;7.47;;;4.50;;
22359;SDS011;11347;52.030;4.690;2022-11-20T07:51:07;7.80;;;4.57;;
22359;SDS011;11347;52.030;4.690;2022-11-20T07:53:33;8.20;;;4.87;;
22359;SDS011;11347;52.030;4.690;2022-11-20T07:56:01;7.00;;;4.53;;
22359;SDS011;11347;52.030;4.690;2022-11-20T07:58:31;6.60;;;4.50;;
22359;SDS011;11347;52.030;4.690;2022-11-20T08:01:05;7.93;;;4.47;;
22359;SDS011;11347;52.030;4.690;2022-11-20T08:03:32;7.50;;;4.77;;
22359;SDS011;11347;52.030;4.690;2022-11-20T08:05:59;8.20;;;4.73;;
22359;SDS011;11347;52.030;4.690;2022-11-20T08:08:28;8.67;;;4.80;;
22359;SDS011;11347;52.030;4.690;2022-11-20T08:10:54;7.53;;;4.80;;
22359;SDS011;11347;52.030;4.690;2022-11-20T08:13:41;7.73;;;4.50;;
22359;SDS011;11347;52.030;4.690;2022-11-20T08:16:39;8.40;;;5.17;;
22359;SDS011;11347;52.030;4.690;2022-11-20T08:19:05;9.37;;;4.87;;
22359;SDS011;11347;52.030;4.690;2022-11-20T08:21:31;10.83;;;4.90;;
22359;SDS011;11347;52.030;4.690;2022-11-20T08:23:58;9.03;;;5.27;;
22359;SDS011;11347;52.030;4.690;2022-11-20T08:26:24;7.17;;;4.70;;
22359;SDS011;11347;52.030;4.690;2022-11-20T08:28:54;8.50;;;4.90;;
22359;SDS011;11347;52.030;4.690;2022-11-20T08:31:20;8.03;;;4.70;;
22359;SDS011;11347;52.030;4.690;2022-11-20T08:33:46;8.97;;;5.33;;
22359;SDS011;11347;52.030;4.690;2022-11-20T08:36:12;9.50;;;4.90;;
22359;SDS011;11347;52.030;4.690;2022-11-20T08:38:37;9.53;;;5.07;;
22359;SDS011;11347;52.030;4.690;2022-11-20T08:41:03;9.20;;;4.90;;
22359;SDS011;11347;52.030;4.690;2022-11-20T08:43:49;9.13;;;4.73;;
22359;SDS011;11347;52.030;4.690;2022-11-20T08:46:15;9.60;;;5.27;;
22359;SDS011;11347;52.030;4.690;2022-11-20T08:48:41;6.83;;;4.77;;
22359;SDS011;11347;52.030;4.690;2022-11-20T08:51:07;7.27;;;4.70;;
22359;SDS011;11347;52.030;4.690;2022-11-20T08:53:32;7.80;;;4.80;;
22359;SDS011;11347;52.030;4.690;2022-11-20T08:55:58;8.47;;;4.87;;
22359;SDS011;11347;52.030;4.690;2022-11-20T08:58:24;10.63;;;5.17;;
22359;SDS011;11347;52.030;4.690;2022-11-20T09:00:50;9.03;;;5.23;;
22359;SDS011;11347;52.030;4.690;2022-11-20T09:03:16;9.93;;;5.37;;
22359;SDS011;11347;52.030;4.690;2022-11-20T09:05:42;8.63;;;5.10;;
22359;SDS011;11347;52.030;4.690;2022-11-20T09:08:10;7.37;;;4.70;;
22359;SDS011;11347;52.030;4.690;2022-11-20T09:10:36;8.40;;;4.77;;
22359;SDS011;11347;52.030;4.690;2022-11-20T09:13:04;8.60;;;5.10;;
22359;SDS011;11347;52.030;4.690;2022-11-20T09:15:30;7.53;;;5.10;;
22359;SDS011;11347;52.030;4.690;2022-11-20T09:17:59;8.80;;;5.43;;
22359;SDS011;11347;52.030;4.690;2022-11-20T09:20:26;8.33;;;4.73;;
22359;SDS011;11347;52.030;4.690;2022-11-20T09:22:53;8.27;;;5.00;;
22359;SDS011;11347;52.030;4.690;2022-11-20T09:25:19;8.73;;;5.67;;
22359;SDS011;11347;52.030;4.690;2022-11-20T09:27:45;9.57;;;5.53;;
22359;SDS011;11347;52.030;4.690;2022-11-20T09:30:11;9.50;;;5.10;;
22359;SDS011;11347;52.030;4.690;2022-11-20T09:32:38;9.10;;;5.10;;
22359;SDS011;11347;52.030;4.690;2022-11-20T09:35:04;9.27;;;4.70;;
22359;SDS011;11347;52.030;4.690;2022-11-20T09:37:30;8.83;;;5.00;;
22359;SDS011;11347;52.030;4.690;2022-11-20T09:39:56;8.50;;;5.53;;
22359;SDS011;11347;52.030;4.690;2022-11-20T09:42:30;8.20;;;5.53;;
22359;SDS011;11347;52.030;4.690;2022-11-20T09:45:18;8.00;;;5.40;;
22359;SDS011;11347;52.030;4.690;2022-11-20T09:48:12;7.63;;;5.00;;
22359;SDS011;11347;52.030;4.690;2022-11-20T09:56:45;7.87;;;5.20;;
22359;SDS011;11347;52.030;4.690;2022-11-20T09:59:28;10.13;;;5.30;;
22359;SDS011;11347;52.030;4.690;2022-11-20T10:01:59;9.30;;;5.20;;
22359;SDS011;11347;52.030;4.690;2022-11-20T10:04:27;9.67;;;5.00;;
22359;SDS011;11347;52.030;4.690;2022-11-20T10:07:00;7.83;;;5.30;;
22359;SDS011;11347;52.030;4.690;2022-11-20T10:09:29;9.63;;;5.70;;
22359;SDS011;11347;52.030;4.690;2022-11-20T10:17:17;10.67;;;5.30;;
22359;SDS011;11347;52.030;4.690;2022-11-20T10:19:56;9.17;;;5.80;;
22359;SDS011;11347;52.030;4.690;2022-11-20T10:34:16;8.40;;;5.00;;
22359;SDS011;11347;52.030;4.690;2022-11-20T10:37:10;9.87;;;5.47;;
22359;SDS011;11347;52.030;4.690;2022-11-20T10:42:31;9.70;;;5.63;;
22359;SDS011;11347;52.030;4.690;2022-11-20T10:47:45;9.80;;;5.23;;
22359;SDS011;11347;52.030;4.690;2022-11-20T10:50:11;9.97;;;5.23;;
22359;SDS011;11347;52.030;4.690;2022-11-20T10:52:54;8.83;;;5.50;;
22359;SDS011;11347;52.030;4.690;2022-11-20T10:55:31;8.77;;;5.50;;
22359;SDS011;11347;52.030;4.690;2022-11-20T11:00:47;9.13;;;5.33;;
22359;SDS011;11347;52.030;4.690;2022-11-20T11:03:20;10.63;;;5.57;;
22359;SDS011;11347;52.030;4.690;2022-11-20T11:05:51;9.63;;;5.80;;
22359;SDS011;11347;52.030;4.690;2022-11-20T11:08:24;9.47;;;5.60;;
22359;SDS011;11347;52.030;4.690;2022-11-20T11:10:54;8.27;;;5.37;;
22359;SDS011;11347;52.030;4.690;2022-11-20T11:13:27;8.57;;;5.20;;
22359;SDS011;11347;52.030;4.690;2022-11-20T11:15:54;10.43;;;5.70;;
22359;SDS011;11347;52.030;4.690;2022-11-20T11:18:24;9.77;;;5.63;;
22359;SDS011;11347;52.030;4.690;2022-11-20T11:20:53;9.80;;;5.73;;
22359;SDS011;11347;52.030;4.690;2022-11-20T11:23:31;9.17;;;5.60;;
22359;SDS011;11347;52.030;4.690;2022-11-20T11:25:59;10.13;;;6.17;;
22359;SDS011;11347;52.030;4.690;2022-11-20T11:28:27;8.93;;;5.80;;
22359;SDS011;11347;52.030;4.690;2022-11-20T11:30:53;9.83;;;6.07;;
22359;SDS011;11347;52.030;4.690;2022-11-20T11:33:20;8.60;;;5.57;;
22359;SDS011;11347;52.030;4.690;2022-11-20T11:35:54;9.43;;;6.30;;
22359;SDS011;11347;52.030;4.690;2022-11-20T11:41:01;10.20;;;6.20;;
22359;SDS011;11347;52.030;4.690;2022-11-20T11:43:28;9.77;;;5.97;;
22359;SDS011;11347;52.030;4.690;2022-11-20T11:49:01;10.17;;;5.97;;
22359;SDS011;11347;52.030;4.690;2022-11-20T11:51:47;9.47;;;6.20;;
22359;SDS011;11347;52.030;4.690;2022-11-20T11:54:25;9.43;;;6.17;;
22359;SDS011;11347;52.030;4.690;2022-11-20T11:56:54;8.93;;;5.97;;
22359;SDS011;11347;52.030;4.690;2022-11-20T11:59:26;10.67;;;5.90;;
22359;SDS011;11347;52.030;4.690;2022-11-20T12:02:10;9.97;;;5.77;;
22359;SDS011;11347;52.030;4.690;2022-11-20T12:04:57;9.97;;;6.10;;
22359;SDS011;11347;52.030;4.690;2022-11-20T12:15:49;11.40;;;5.93;;
22359;SDS011;11347;52.030;4.690;2022-11-20T12:18:19;9.60;;;6.27;;
22359;SDS011;11347;52.030;4.690;2022-11-20T12:20:55;13.10;;;6.87;;
22359;SDS011;11347;52.030;4.690;2022-11-20T12:29:07;11.40;;;7.00;;
22359;SDS011;11347;52.030;4.690;2022-11-20T12:40:02;11.10;;;6.60;;
22359;SDS011;11347;52.030;4.690;2022-11-20T12:43:01;11.93;;;7.17;;
22359;SDS011;11347;52.030;4.690;2022-11-20T12:46:46;13.50;;;7.27;;
22359;SDS011;11347;52.030;4.690;2022-11-20T12:48:59;10.93;;;6.53;;
22359;SDS011;11347;52.030;4.690;2022-11-20T12:51:33;14.57;;;7.27;;
22359;SDS011;11347;52.030;4.690;2022-11-20T12:54:08;13.07;;;6.83;;
22359;SDS011;11347;52.030;4.690;2022-11-20T12:57:03;13.90;;;7.77;;
22359;SDS011;11347;52.030;4.690;2022-11-20T13:00:14;12.70;;;6.47;;
22359;SDS011;11347;52.030;4.690;2022-11-20T13:05:58;13.97;;;6.90;;
22359;SDS011;11347;52.030;4.690;2022-11-20T13:08:37;14.07;;;6.67;;
22359;SDS011;11347;52.030;4.690;2022-11-20T13:19:02;12.33;;;6.90;;
22359;SDS011;11347;52.030;4.690;2022-11-20T13:21:37;14.50;;;7.37;;
22359;SDS011;11347;52.030;4.690;2022-11-20T13:24:19;14.27;;;7.40;;
22359;SDS011;11347;52.030;4.690;2022-11-20T13:26:47;13.30;;;7.03;;
22359;SDS011;11347;52.030;4.690;2022-11-20T13:29:34;13.50;;;7.50;;
22359;SDS011;11347;52.030;4.690;2022-11-20T13:35:00;14.83;;;7.10;;
22359;SDS011;11347;52.030;4.690;2022-11-20T13:37:30;14.77;;;7.23;;
22359;SDS011;11347;52.030;4.690;2022-11-20T13:42:44;15.40;;;7.70;;
22359;SDS011;11347;52.030;4.690;2022-11-20T13:45:23;16.63;;;8.03;;
22359;SDS011;11347;52.030;4.690;2022-11-20T13:47:51;13.77;;;7.50;;
22359;SDS011;11347;52.030;4.690;2022-11-20T13:50:19;14.07;;;7.60;;
22359;SDS011;11347;52.030;4.690;2022-11-20T13:52:58;13.73;;;7.33;;
22359;SDS011;11347;52.030;4.690;2022-11-20T13:55:54;16.13;;;7.93;;
22359;SDS011;11347;52.030;4.690;2022-11-20T13:58:47;16.70;;;8.53;;
22359;SDS011;11347;52.030;4.690;2022-11-20T14:01:19;15.00;;;8.13;;
22359;SDS011;11347;52.030;4.690;2022-11-20T14:03:50;15.70;;;8.40;;
22359;SDS011;11347;52.030;4.690;2022-11-20T14:06:24;14.30;;;7.90;;
22359;SDS011;11347;52.030;4.690;2022-11-20T14:08:56;13.67;;;7.53;;
22359;SDS011;11347;52.030;4.690;2022-11-20T14:11:23;16.67;;;8.03;;
22359;SDS011;11347;52.030;4.690;2022-11-20T14:16:28;15.00;;;8.10;;
22359;SDS011;11347;52.030;4.690;2022-11-20T14:18:56;14.57;;;7.33;;
22359;SDS011;11347;52.030;4.690;2022-11-20T14:21:27;19.37;;;8.97;;
22359;SDS011;11347;52.030;4.690;2022-11-20T14:24:03;15.43;;;8.47;;
22359;SDS011;11347;52.030;4.690;2022-11-20T14:26:30;16.93;;;8.47;;
22359;SDS011;11347;52.030;4.690;2022-11-20T14:28:56;18.87;;;8.07;;
22359;SDS011;11347;52.030;4.690;2022-11-20T14:31:25;15.87;;;8.20;;
22359;SDS011;11347;52.030;4.690;2022-11-20T14:33:53;15.23;;;8.10;;
22359;SDS011;11347;52.030;4.690;2022-11-20T14:36:22;16.53;;;8.73;;
22359;SDS011;11347;52.030;4.690;2022-11-20T14:38:50;16.47;;;8.13;;
22359;SDS011;11347;52.030;4.690;2022-11-20T14:41:20;15.37;;;7.93;;
22359;SDS011;11347;52.030;4.690;2022-11-20T14:43:50;18.17;;;8.40;;
22359;SDS011;11347;52.030;4.690;2022-11-20T14:46:20;16.03;;;8.23;;
22359;SDS011;11347;52.030;4.690;2022-11-20T14:48:47;14.67;;;8.40;;
22359;SDS011;11347;52.030;4.690;2022-11-20T14:51:30;15.43;;;8.10;;
22359;SDS011;11347;52.030;4.690;2022-11-20T14:53:56;17.50;;;8.57;;
22359;SDS011;11347;52.030;4.690;2022-11-20T14:56:32;16.03;;;8.60;;
22359;SDS011;11347;52.030;4.690;2022-11-20T14:58:57;19.40;;;8.73;;
22359;SDS011;11347;52.030;4.690;2022-11-20T15:01:27;19.03;;;8.87;;
22359;SDS011;11347;52.030;4.690;2022-11-20T15:03:59;18.97;;;9.07;;
22359;SDS011;11347;52.030;4.690;2022-11-20T15:06:34;18.30;;;9.20;;
22359;SDS011;11347;52.030;4.690;2022-11-20T15:09:01;16.60;;;8.70;;
22359;SDS011;11347;52.030;4.690;2022-11-20T15:11:30;15.73;;;8.43;;
22359;SDS011;11347;52.030;4.690;2022-11-20T15:13:58;16.40;;;8.70;;
22359;SDS011;11347;52.030;4.690;2022-11-20T15:16:28;16.50;;;9.07;;
22359;SDS011;11347;52.030;4.690;2022-11-20T15:18:53;17.93;;;8.80;;
22359;SDS011;11347;52.030;4.690;2022-11-20T15:21:20;16.83;;;8.80;;
22359;SDS011;11347;52.030;4.690;2022-11-20T15:23:46;17.20;;;9.10;;
22359;SDS011;11347;52.030;4.690;2022-11-20T15:26:13;17.03;;;8.33;;
22359;SDS011;11347;52.030;4.690;2022-11-20T15:28:42;18.13;;;8.83;;
22359;SDS011;11347;52.030;4.690;2022-11-20T15:31:13;18.27;;;9.33;;
22359;SDS011;11347;52.030;4.690;2022-11-20T15:33:40;17.10;;;8.93;;
22359;SDS011;11347;52.030;4.690;2022-11-20T15:36:07;17.70;;;9.27;;
22359;SDS011;11347;52.030;4.690;2022-11-20T15:38:33;17.13;;;9.20;;
22359;SDS011;11347;52.030;4.690;2022-11-20T15:40:58;16.43;;;8.80;;
22359;SDS011;11347;52.030;4.690;2022-11-20T15:43:24;17.27;;;8.90;;
22359;SDS011;11347;52.030;4.690;2022-11-20T15:48:34;15.13;;;7.83;;
22359;SDS011;11347;52.030;4.690;2022-11-20T15:51:07;17.07;;;9.10;;
22359;SDS011;11347;52.030;4.690;2022-11-20T15:53:39;13.87;;;8.30;;
22359;SDS011;11347;52.030;4.690;2022-11-20T15:56:08;16.50;;;8.33;;
22359;SDS011;11347;52.030;4.690;2022-11-20T15:58:37;15.47;;;8.20;;
22359;SDS011;11347;52.030;4.690;2022-11-20T16:01:03;15.00;;;7.90;;
22359;SDS011;11347;52.030;4.690;2022-11-20T16:03:29;14.53;;;8.17;;
22359;SDS011;11347;52.030;4.690;2022-11-20T16:05:55;15.33;;;7.87;;
22359;SDS011;11347;52.030;4.690;2022-11-20T16:08:20;16.07;;;7.60;;
22359;SDS011;11347;52.030;4.690;2022-11-20T16:10:46;14.67;;;8.10;;
22359;SDS011;11347;52.030;4.690;2022-11-20T16:13:13;17.07;;;8.03;;
22359;SDS011;11347;52.030;4.690;2022-11-20T16:15:59;16.20;;;7.57;;
22359;SDS011;11347;52.030;4.690;2022-11-20T16:18:29;12.70;;;7.47;;
22359;SDS011;11347;52.030;4.690;2022-11-20T16:20:56;14.17;;;7.93;;
22359;SDS011;11347;52.030;4.690;2022-11-20T16:23:22;14.07;;;7.50;;